Terminal Aerodrome Forecast
Issued by NWS

Home | Current Version | Previous Version | Text Only | Print | Product List | Glossary On
Versions: 1 2 3 4 5 6 7 8 9 10 11 12 13
768
FTUS43 KMPX 130520
TAFRNH
TAF
KRNH 130520Z 1306/1406 31004KT P6SM SKC
     FM131200 VRB02KT P6SM FEW250
     FM132000 16005KT P6SM SCT250
     FM140200 13005KT P6SM OVC100=

USA.gov is the U.S. government's official web portal to all federal, state and local government web resources and services.